Time;durP1;ratioP1;P1;durP2;ratioP2;P2;SDS_P1;SDS_P2;PMS_P1;PMS_P2;Temp;Humidity;BMP_temperature;BMP_pressure;BME280_temperature;BME280_humidity;BME280_pressure;Samples;Min_cycle;Max_cycle;Signal;HPM_P1;HPM_P2
2023/12/14 00:02:05;;;;;;;;;5.00;4.00;;;;;21.89;49.61;100009.76;112164;1247;19531;-31
2023/12/14 00:04:32;;;;;;;;;2.00;2.00;;;;;21.87;48.87;100008.86;112215;1247;19877;-31
2023/12/14 00:06:59;;;;;;;;;5.00;4.00;;;;;21.88;49.04;100014.51;112183;1262;20690;-32
2023/12/14 00:09:27;;;;;;;;;6.33;5.00;;;;;21.87;49.15;100013.11;112150;1247;19791;-31
2023/12/14 00:11:54;;;;;;;;;4.00;4.00;;;;;21.86;49.17;100011.15;112180;1262;19805;-31
2023/12/14 00:14:22;;;;;;;;;5.00;4.00;;;;;21.87;48.96;100012.89;112184;1247;20703;-31
2023/12/14 00:16:50;;;;;;;;;5.00;4.00;;;;;21.86;48.90;100010.50;112186;1262;18763;-32
2023/12/14 00:19:17;;;;;;;;;4.00;4.00;;;;;21.87;48.87;100014.25;112168;1247;20376;-31
2023/12/14 00:21:45;;;;;;;;;4.00;4.00;;;;;21.87;48.88;100018.95;112183;1247;20746;-31
2023/12/14 00:24:12;;;;;;;;;7.33;5.00;;;;;21.86;49.04;100021.02;112175;1247;18230;-31
2023/12/14 00:26:40;;;;;;;;;2.67;2.67;;;;;21.86;48.76;100021.73;112163;1262;19712;-31
2023/12/14 00:29:07;;;;;;;;;4.50;4.00;;;;;21.86;48.73;100022.34;112144;1262;20791;-31
2023/12/14 00:31:34;;;;;;;;;4.00;2.00;;;;;21.85;49.02;100025.30;112162;1262;18680;-31
2023/12/14 00:34:02;;;;;;;;;5.67;5.00;;;;;21.85;49.16;100027.15;112169;1247;20101;-31
2023/12/14 00:36:30;;;;;;;;;4.00;4.00;;;;;21.84;48.83;100025.65;112162;1262;19328;-31
2023/12/14 00:38:57;;;;;;;;;5.00;4.00;;;;;21.85;48.60;100032.01;112168;1247;19641;-31
2023/12/14 00:41:24;;;;;;;;;5.00;5.00;;;;;21.84;48.67;100029.39;112163;1247;20075;-31
2023/12/14 00:43:52;;;;;;;;;4.00;2.00;;;;;21.85;48.70;100028.30;112194;1254;20809;-31
2023/12/14 00:46:19;;;;;;;;;4.00;4.00;;;;;21.85;48.67;100030.59;112174;1262;18227;-31
2023/12/14 00:48:47;;;;;;;;;5.00;4.00;;;;;21.84;48.73;100032.98;112180;1247;20041;-31
2023/12/14 00:51:14;;;;;;;;;5.00;4.00;;;;;21.84;48.56;100030.61;112184;1262;19509;-31
2023/12/14 00:53:41;;;;;;;;;4.00;4.00;;;;;21.84;48.45;100033.56;112216;1247;19495;-31
2023/12/14 00:56:09;;;;;;;;;5.00;4.00;;;;;21.83;48.49;100033.77;112190;1247;20016;-32
2023/12/14 00:58:36;;;;;;;;;4.00;2.00;;;;;21.83;48.59;100034.92;112200;1262;19416;-31
2023/12/14 01:01:04;;;;;;;;;2.00;2.00;;;;;21.82;48.68;100036.68;112215;1262;19501;-31
2023/12/14 01:03:32;;;;;;;;;2.00;2.00;;;;;21.81;48.60;100036.42;112197;1262;19911;-31
2023/12/14 01:05:59;;;;;;;;;4.00;4.00;;;;;21.82;48.52;100038.86;112170;1247;20926;-31
2023/12/14 01:08:27;;;;;;;;;4.00;2.00;;;;;21.82;48.81;100040.50;112195;1262;19519;-32
2023/12/14 01:10:54;;;;;;;;;4.00;4.00;;;;;21.81;48.81;100038.65;112175;1248;20016;-31
2023/12/14 01:13:21;;;;;;;;;4.00;2.67;;;;;21.80;48.52;100039.05;112230;1248;20773;-31
2023/12/14 01:15:49;;;;;;;;;4.00;4.00;;;;;21.81;48.52;100044.27;112214;1262;18227;-31
2023/12/14 01:18:17;;;;;;;;;4.50;4.00;;;;;21.80;48.65;100043.64;112207;1262;18638;-31
2023/12/14 01:20:44;;;;;;;;;2.00;2.00;;;;;21.81;48.57;100044.98;112165;1248;20744;-31
2023/12/14 01:23:11;;;;;;;;;4.00;4.00;;;;;21.81;48.30;100046.13;112205;1247;20249;-31
2023/12/14 01:25:39;;;;;;;;;2.00;2.00;;;;;21.81;48.56;100047.11;112195;1247;20600;-31
2023/12/14 01:28:06;;;;;;;;;4.00;3.00;;;;;21.82;48.30;100046.13;112198;1249;22392;-31
2023/12/14 01:30:34;;;;;;;;;4.00;2.00;;;;;21.80;48.59;100044.56;112130;1247;19607;-32
2023/12/14 01:33:01;;;;;;;;;4.33;4.00;;;;;21.81;48.60;100049.23;112185;1254;20123;-31
2023/12/14 01:35:29;;;;;;;;;5.00;4.00;;;;;21.80;48.40;100043.41;112147;1254;20746;-31
2023/12/14 01:37:57;;;;;;;;;2.00;2.00;;;;;21.81;48.43;100052.68;112226;1262;18684;-31
2023/12/14 01:40:24;;;;;;;;;4.00;4.00;;;;;21.81;48.38;100053.71;111881;1251;376627;-31
2023/12/14 01:42:51;;;;;;;;;2.00;2.00;;;;;21.80;48.20;100053.45;112246;1247;22014;-31
2023/12/14 01:45:20;;;;;;;;;2.00;2.00;;;;;21.81;48.00;100055.89;112162;1246;18797;-31
2023/12/14 01:47:47;;;;;;;;;5.00;4.00;;;;;21.80;48.48;100060.42;112223;1255;19927;-31
2023/12/14 01:50:14;;;;;;;;;5.00;4.00;;;;;21.81;48.23;100056.83;112166;1254;20806;-31
2023/12/14 01:52:42;;;;;;;;;4.00;4.00;;;;;21.79;48.18;100057.98;112223;1262;18243;-31
2023/12/14 01:55:09;;;;;;;;;7.00;4.00;;;;;21.80;48.13;100062.77;112180;1262;18842;-32
2023/12/14 01:57:37;;;;;;;;;4.33;4.00;;;;;21.80;48.15;100058.09;112098;1262;19312;-31
2023/12/14 02:00:04;;;;;;;;;8.00;5.00;;;;;21.78;48.30;100057.45;111980;1263;19560;-31
2023/12/14 02:02:31;;;;;;;;;4.00;4.00;;;;;21.78;48.23;100058.00;112088;1263;18647;-31
2023/12/14 02:04:59;;;;;;;;;4.00;4.00;;;;;21.79;48.27;100057.61;111964;1263;20637;-31
2023/12/14 02:07:26;;;;;;;;;4.00;4.00;;;;;21.79;48.34;100058.10;112119;1263;18384;-31
2023/12/14 02:09:54;;;;;;;;;4.00;2.00;;;;;21.80;48.29;100057.23;112018;1248;20509;-31
2023/12/14 02:12:21;;;;;;;;;5.00;4.00;;;;;21.78;48.02;100058.55;112054;1263;20676;-31
2023/12/14 02:14:48;;;;;;;;;2.00;2.00;;;;;21.78;48.30;100060.02;111995;1263;18207;-31
2023/12/14 02:17:16;;;;;;;;;3.00;3.00;;;;;21.77;48.15;100059.55;112072;1250;20050;-31
2023/12/14 02:19:43;;;;;;;;;2.00;2.00;;;;;21.78;47.93;100068.09;112045;1263;19500;-32
2023/12/14 02:22:11;;;;;;;;;2.00;2.00;;;;;21.78;47.97;100067.06;112124;1248;19542;-32
2023/12/14 02:24:38;;;;;;;;;5.00;5.00;;;;;21.76;47.99;100063.64;112098;1248;19886;-31
2023/12/14 02:27:05;;;;;;;;;3.00;2.00;;;;;21.77;47.96;100061.79;112142;1249;20811;-31
2023/12/14 02:29:33;;;;;;;;;4.00;4.00;;;;;21.76;47.79;100064.30;112114;1257;19495;-31
2023/12/14 02:32:00;;;;;;;;;2.00;2.00;;;;;21.77;48.01;100065.05;112193;1247;20048;-31
2023/12/14 02:34:27;;;;;;;;;2.00;2.00;;;;;21.76;47.99;100068.12;112269;1262;20870;-31
2023/12/14 02:36:55;;;;;;;;;3.00;3.00;;;;;21.74;48.11;100065.85;112197;1248;19622;-31
2023/12/14 02:39:22;;;;;;;;;4.00;2.67;;;;;21.75;47.83;100066.89;112272;1256;19913;-31
2023/12/14 02:41:50;;;;;;;;;2.00;2.00;;;;;21.76;47.95;100068.66;112161;1256;20680;-31
2023/12/14 02:44:17;;;;;;;;;5.00;5.00;;;;;21.76;47.81;100071.02;112276;1247;19651;-31
2023/12/14 02:46:44;;;;;;;;;2.00;2.00;;;;;21.76;47.88;100074.34;112178;1262;18784;-31
2023/12/14 02:49:12;;;;;;;;;2.00;2.00;;;;;21.76;47.86;100072.00;112300;1254;21826;-31
2023/12/14 02:51:39;;;;;;;;;2.00;2.00;;;;;21.75;47.69;100074.29;112199;1254;18680;-31
2023/12/14 02:54:06;;;;;;;;;4.00;2.00;;;;;21.75;47.86;100074.67;112321;1248;20029;-31
2023/12/14 02:56:34;;;;;;;;;3.33;3.33;;;;;21.75;47.81;100077.62;112209;1247;20742;-31
2023/12/14 02:59:01;;;;;;;;;4.33;4.33;;;;;21.74;47.75;100076.33;112257;1254;19666;-31
2023/12/14 03:01:28;;;;;;;;;2.00;2.00;;;;;21.74;47.85;100081.11;112205;1262;20408;-32
2023/12/14 03:03:56;;;;;;;;;4.00;2.00;;;;;21.75;47.67;100081.32;112276;1247;19445;-31
2023/12/14 03:06:23;;;;;;;;;4.50;4.00;;;;;21.75;47.55;100082.14;112253;1247;19605;-32
2023/12/14 03:08:51;;;;;;;;;4.00;4.00;;;;;21.75;47.78;100083.23;112237;1262;18642;-32
2023/12/14 03:11:18;;;;;;;;;2.00;2.00;;;;;21.75;47.80;100087.87;112242;1247;21877;-31
2023/12/14 03:13:45;;;;;;;;;5.00;4.00;;;;;21.75;47.63;100088.40;112244;1246;19687;-31
2023/12/14 03:16:13;;;;;;;;;4.00;4.00;;;;;21.75;47.87;100089.55;112273;1262;18611;-31
2023/12/14 03:18:40;;;;;;;;;4.00;3.00;;;;;21.74;47.81;100090.05;112150;1256;20652;-31
2023/12/14 03:21:08;;;;;;;;;4.50;4.00;;;;;21.75;47.80;100093.59;112254;1249;20880;-31
2023/12/14 03:23:35;;;;;;;;;2.00;2.00;;;;;21.75;47.84;100097.41;112157;1247;18816;-31
2023/12/14 03:26:02;;;;;;;;;4.00;3.00;;;;;21.74;47.73;100096.49;112295;1249;20688;-31
2023/12/14 03:28:30;;;;;;;;;2.00;2.00;;;;;21.74;47.76;100100.48;112158;1247;19531;-32
2023/12/14 03:30:57;;;;;;;;;4.00;2.00;;;;;21.74;47.95;100103.42;112241;1247;20063;-32
2023/12/14 03:33:25;;;;;;;;;2.00;2.00;;;;;21.74;47.71;100104.50;112001;1248;20913;-32
2023/12/14 03:35:52;;;;;;;;;1.50;1.50;;;;;21.74;47.94;100107.77;112161;1263;18184;-31
2023/12/14 03:38:19;;;;;;;;;2.00;2.00;;;;;21.74;47.95;100107.08;111984;1248;20057;-32
2023/12/14 03:40:47;;;;;;;;;3.33;3.33;;;;;21.73;47.83;100109.09;112168;1248;21971;-31
2023/12/14 03:43:14;;;;;;;;;2.00;2.00;;;;;21.73;47.93;100110.80;112047;1263;18395;-32
2023/12/14 03:45:42;;;;;;;;;3.00;3.00;;;;;21.74;47.63;100113.78;112183;1248;20066;-31
2023/12/14 03:48:09;;;;;;;;;2.00;2.00;;;;;21.73;47.72;100119.83;112030;1257;21884;-31
2023/12/14 03:50:36;;;;;;;;;3.33;3.33;;;;;21.71;48.09;100120.24;112167;1263;18594;-31
2023/12/14 03:53:04;;;;;;;;;2.00;2.00;;;;;21.73;47.78;100122.73;112100;1247;18506;-31
2023/12/14 03:55:31;;;;;;;;;2.00;2.00;;;;;21.72;47.86;100124.48;111997;1248;20679;-32
2023/12/14 03:57:58;;;;;;;;;4.00;4.00;;;;;21.72;47.62;100127.86;112049;1263;18883;-31
2023/12/14 04:00:26;;;;;;;;;3.00;3.00;;;;;21.73;47.73;100129.98;111967;1248;18752;-31
2023/12/14 04:02:53;;;;;;;;;1.50;1.50;;;;;21.71;47.80;100135.73;112111;1249;21116;-32
2023/12/14 04:05:21;;;;;;;;;5.00;4.00;;;;;21.71;47.58;100137.48;111983;1248;19601;-31
2023/12/14 04:07:48;;;;;;;;;4.00;2.00;;;;;21.71;47.68;100137.96;112148;1247;18825;-31
2023/12/14 04:10:15;;;;;;;;;2.00;2.00;;;;;21.72;47.70;100141.55;112022;1249;23582;-32
2023/12/14 04:12:43;;;;;;;;;4.00;4.00;;;;;21.71;47.78;100140.09;112136;1247;19764;-31
2023/12/14 04:15:11;;;;;;;;;2.00;2.00;;;;;21.72;47.60;100142.92;111992;1248;21256;-31
2023/12/14 04:17:38;;;;;;;;;4.00;4.00;;;;;21.71;47.57;100145.06;112115;1263;19278;-31
2023/12/14 04:20:06;;;;;;;;;2.00;2.00;;;;;21.72;47.91;100143.63;112018;1263;18201;-31
2023/12/14 04:22:33;;;;;;;;;2.00;2.00;;;;;21.71;47.59;100144.13;112087;1255;20174;-31
2023/12/14 04:25:01;;;;;;;;;2.00;2.00;;;;;21.71;47.66;100149.68;111995;1263;19453;-31
2023/12/14 04:27:29;;;;;;;;;2.00;2.00;;;;;21.70;47.50;100151.55;112081;1256;19536;-31
2023/12/14 04:29:57;;;;;;;;;2.00;2.00;;;;;21.70;47.53;100149.15;112053;1256;19989;-32
2023/12/14 04:32:24;;;;;;;;;2.00;2.00;;;;;21.69;47.76;100151.78;112159;1254;19402;-32
2023/12/14 04:34:51;;;;;;;;;2.00;2.00;;;;;21.68;47.60;100152.98;112129;1262;19540;-31
2023/12/14 04:37:19;;;;;;;;;2.00;2.00;;;;;21.68;47.59;100154.63;112216;1255;19963;-31
2023/12/14 04:39:46;;;;;;;;;4.00;2.00;;;;;21.69;47.65;100160.06;112166;1262;19347;-31
2023/12/14 04:42:14;;;;;;;;;4.00;4.00;;;;;21.69;47.78;100162.20;112230;1254;19497;-31
2023/12/14 04:44:41;;;;;;;;;1.50;1.50;;;;;21.69;47.51;100161.60;112161;1248;20096;-32
2023/12/14 04:47:09;;;;;;;;;2.00;2.00;;;;;21.69;47.40;100164.27;112218;1262;20763;-31
2023/12/14 04:49:36;;;;;;;;;2.00;2.00;;;;;21.69;47.65;100164.77;112147;1248;18740;-31
2023/12/14 04:52:04;;;;;;;;;4.00;3.00;;;;;21.69;47.56;100171.95;112219;1262;18649;-32
2023/12/14 04:54:31;;;;;;;;;4.00;2.67;;;;;21.69;47.49;100172.17;112174;1247;21216;-31
2023/12/14 04:56:58;;;;;;;;;4.00;2.00;;;;;21.68;47.51;100173.16;112227;1262;18197;-31
2023/12/14 04:59:26;;;;;;;;;1.00;1.00;;;;;21.68;47.36;100174.09;112183;1247;21138;-31
2023/12/14 05:01:53;;;;;;;;;5.00;2.00;;;;;21.69;47.38;100179.27;112257;1247;19439;-31
2023/12/14 05:04:20;;;;;;;;;2.00;2.00;;;;;21.69;47.61;100177.79;112208;1247;19588;-31
2023/12/14 05:06:48;;;;;;;;;2.00;2.00;;;;;21.70;47.60;100183.34;112271;1247;20026;-32
2023/12/14 05:09:15;;;;;;;;;2.67;2.67;;;;;21.68;47.50;100186.79;112199;1254;20601;-31
2023/12/14 05:11:43;;;;;;;;;4.00;2.00;;;;;21.67;47.48;100189.42;112203;1262;18180;-31
2023/12/14 05:14:10;;;;;;;;;2.00;2.00;;;;;21.68;47.49;100192.13;112202;1247;19010;-31
2023/12/14 05:16:37;;;;;;;;;2.00;2.00;;;;;21.68;47.51;100194.27;112171;1247;20787;-31
2023/12/14 05:19:05;;;;;;;;;4.00;4.00;;;;;21.67;47.36;100197.16;112183;1247;19585;-31
2023/12/14 05:21:32;;;;;;;;;5.00;5.00;;;;;21.68;47.55;100198.13;112195;1254;20174;-31
2023/12/14 05:24:00;;;;;;;;;3.33;3.33;;;;;21.67;47.45;100200.81;112242;1254;22033;-31
2023/12/14 05:26:27;;;;;;;;;4.00;4.00;;;;;21.68;47.54;100206.42;112249;1247;19633;-31
2023/12/14 05:28:54;;;;;;;;;5.00;4.00;;;;;21.68;47.39;100210.30;112201;1262;19929;-31
2023/12/14 05:31:22;;;;;;;;;2.00;2.00;;;;;21.68;47.35;100216.77;112313;1247;20776;-31
2023/12/14 05:33:49;;;;;;;;;4.00;4.00;;;;;21.67;47.09;100219.08;112263;1247;19501;-31
2023/12/14 05:36:16;;;;;;;;;4.00;4.00;;;;;21.68;47.24;100225.39;112281;1262;18605;-31
2023/12/14 05:38:44;;;;;;;;;4.00;4.00;;;;;21.67;47.44;100223.92;112217;1255;19326;-31
2023/12/14 05:41:11;;;;;;;;;4.00;4.00;;;;;21.67;47.23;100225.52;112184;1247;19491;-31
2023/12/14 05:43:39;;;;;;;;;5.00;5.00;;;;;21.68;47.25;100226.64;112204;1262;19617;-31
2023/12/14 05:46:06;;;;;;;;;4.00;4.00;;;;;21.66;47.34;100227.64;112215;1262;20681;-31
2023/12/14 05:48:34;;;;;;;;;7.00;5.00;;;;;21.66;47.34;100227.80;112183;1247;20925;-31
2023/12/14 05:51:01;;;;;;;;;5.50;4.50;;;;;21.66;47.28;100228.51;112064;1256;18607;-32
2023/12/14 05:53:29;;;;;;;;;4.50;4.00;;;;;21.65;47.32;100232.71;112037;1259;20641;-31
2023/12/14 05:55:56;;;;;;;;;5.00;4.00;;;;;21.66;47.10;100238.98;112043;1256;19406;-31
2023/12/14 05:58:23;;;;;;;;;4.00;4.00;;;;;21.66;47.26;100239.48;111978;1257;20176;-31
2023/12/14 06:00:51;;;;;;;;;5.00;5.00;;;;;21.65;47.42;100242.38;112037;1263;19534;-31
2023/12/14 06:03:18;;;;;;;;;4.00;4.00;;;;;21.66;47.00;100244.43;111998;1248;18327;-31
2023/12/14 06:05:46;;;;;;;;;5.00;5.00;;;;;21.64;47.29;100247.23;112065;1248;19984;-31
2023/12/14 06:08:13;;;;;;;;;5.00;4.00;;;;;21.65;47.19;100249.23;111998;1263;19368;-31
2023/12/14 06:10:40;;;;;;;;;5.00;4.00;;;;;21.65;46.98;100251.30;112086;1250;19597;-31
2023/12/14 06:13:08;;;;;;;;;4.00;4.00;;;;;21.66;47.10;100255.44;111982;1256;21285;-31
2023/12/14 06:15:35;;;;;;;;;5.00;4.00;;;;;21.64;47.03;100257.98;112058;1248;19567;-31
2023/12/14 06:18:04;;;;;;;;;4.00;4.00;;;;;21.63;47.31;100261.02;112043;1248;19654;-31
2023/12/14 06:20:32;;;;;;;;;4.67;4.67;;;;;21.63;47.24;100262.77;112084;1263;19841;-31
2023/12/14 06:22:59;;;;;;;;;4.00;4.00;;;;;21.63;47.17;100268.17;112026;1263;19291;-31
2023/12/14 06:25:27;;;;;;;;;5.00;5.00;;;;;21.64;47.24;100271.93;112074;1248;20791;-31
2023/12/14 06:27:54;;;;;;;;;5.00;5.00;;;;;21.63;47.26;100276.63;112030;1255;20130;-32
2023/12/14 06:30:22;;;;;;;;;5.00;5.00;;;;;21.64;47.26;100277.81;112107;1262;19403;-31
2023/12/14 06:32:49;;;;;;;;;5.00;5.00;;;;;21.64;47.05;100278.25;112183;1262;19570;-31
2023/12/14 06:35:16;;;;;;;;;4.00;4.00;;;;;21.64;47.08;100279.84;112245;1262;18599;-31
2023/12/14 06:37:44;;;;;;;;;5.00;4.50;;;;;21.63;47.20;100282.02;112157;1247;20764;-31
2023/12/14 06:40:11;;;;;;;;;4.33;4.33;;;;;21.64;47.30;100280.44;112236;1262;18172;-31
2023/12/14 06:42:39;;;;;;;;;5.00;5.00;;;;;21.63;46.87;100279.79;112113;1262;18623;-31
2023/12/14 06:45:06;;;;;;;;;5.00;5.00;;;;;21.63;47.07;100287.26;112246;1247;21217;-31
2023/12/14 06:47:34;;;;;;;;;5.00;5.00;;;;;21.63;47.03;100289.49;112141;1247;19655;-31
2023/12/14 06:50:01;;;;;;;;;5.00;4.00;;;;;21.63;46.99;100293.86;112155;1262;18644;-31
2023/12/14 06:52:29;;;;;;;;;4.00;4.00;;;;;21.66;46.92;100295.90;112175;1247;20710;-31
2023/12/14 06:54:56;;;;;;;;;5.00;5.00;;;;;21.65;47.06;100297.48;112236;1247;19652;-31
2023/12/14 06:57:24;;;;;;;;;5.00;4.00;;;;;21.64;47.04;100301.31;112163;1257;20197;-31
2023/12/14 06:59:52;;;;;;;;;4.00;4.00;;;;;21.64;47.08;100308.23;112243;1262;19398;-31
2023/12/14 07:02:20;;;;;;;;;7.00;5.00;;;;;21.63;47.08;100308.67;112158;1257;19550;-31
2023/12/14 07:04:47;;;;;;;;;5.00;5.00;;;;;21.64;47.02;100312.98;112241;1262;18644;-31
2023/12/14 07:07:15;;;;;;;;;7.00;7.00;;;;;21.64;46.88;100323.55;112173;1247;19254;-31
2023/12/14 07:09:43;;;;;;;;;7.00;7.00;;;;;21.64;46.87;100334.02;112267;1247;19593;-31
2023/12/14 07:12:11;;;;;;;;;5.00;5.00;;;;;21.64;46.87;100337.23;112157;1262;18595;-31
2023/12/14 07:14:39;;;;;;;;;4.67;4.67;;;;;21.63;46.90;100343.02;112184;1254;19470;-31
2023/12/14 07:17:06;;;;;;;;;5.00;5.00;;;;;21.65;46.74;100345.52;112229;1254;19613;-31
2023/12/14 07:19:33;;;;;;;;;4.50;4.50;;;;;21.65;46.92;100347.92;112190;1262;19935;-31
2023/12/14 07:22:01;;;;;;;;;7.00;5.00;;;;;21.65;46.77;100353.74;112251;1254;19707;-31
2023/12/14 07:24:28;;;;;;;;;5.00;4.00;;;;;21.63;47.01;100356.65;112231;1257;21158;-31
2023/12/14 07:26:56;;;;;;;;;4.00;4.00;;;;;21.62;47.20;100357.38;112278;1254;19956;-31
2023/12/14 07:29:23;;;;;;;;;7.00;7.00;;;;;21.62;47.21;100357.42;112272;1247;20753;-31
2023/12/14 07:31:50;;;;;;;;;3.00;3.00;;;;;21.63;47.24;100362.54;112245;1262;18210;-31
2023/12/14 07:34:18;;;;;;;;;5.00;5.00;;;;;21.70;47.07;100364.11;112272;1262;18532;-31
2023/12/14 07:36:45;;;;;;;;;4.00;4.00;;;;;21.69;47.06;100365.98;112170;1254;20639;-31
2023/12/14 07:39:12;;;;;;;;;5.00;4.00;;;;;21.71;47.26;100367.77;112240;1262;18513;-31
2023/12/14 07:41:40;;;;;;;;;4.00;4.00;;;;;21.70;47.27;100367.51;112126;1247;20047;-29
2023/12/14 07:44:07;;;;;;;;;4.00;4.00;;;;;21.70;47.17;100367.39;112265;1254;19300;-29
2023/12/14 07:46:39;;;;;;;;;5.00;4.00;;;;;21.75;47.46;100370.18;112220;1262;18148;-31
2023/12/14 07:49:06;;;;;;;;;4.00;4.00;;;;;21.73;47.71;100380.51;112215;1262;18636;-31
2023/12/14 07:51:34;;;;;;;;;4.50;4.00;;;;;21.77;47.92;100384.23;112038;1263;19387;-31
2023/12/14 07:54:03;;;;;;;;;4.00;4.00;;;;;21.83;49.13;100391.81;112080;1263;18743;-31
2023/12/14 07:56:32;;;;;;;;;4.00;2.00;;;;;21.79;49.86;100394.57;112074;1263;21710;-31
2023/12/14 07:59:00;;;;;;;;;2.00;2.00;;;;;21.76;50.07;100399.08;111972;1263;19348;-31
2023/12/14 08:01:27;;;;;;;;;4.00;4.00;;;;;21.73;50.60;100401.77;112165;1247;19606;-32
2023/12/14 08:03:54;;;;;;;;;3.00;3.00;;;;;21.73;50.06;100406.47;111981;1263;19878;-31
2023/12/14 08:06:22;;;;;;;;;4.33;4.00;;;;;21.72;49.80;100411.20;112156;1263;19605;-31
2023/12/14 08:08:49;;;;;;;;;5.00;5.00;;;;;21.72;49.62;100409.63;112013;1247;19775;-31
2023/12/14 08:11:16;;;;;;;;;2.00;2.00;;;;;21.71;49.73;100414.87;112157;1263;19931;-31
2023/12/14 08:13:44;;;;;;;;;4.00;4.00;;;;;21.70;49.73;100420.16;112049;1248;20799;-31
2023/12/14 08:16:12;;;;;;;;;4.00;4.00;;;;;21.73;49.63;100421.62;112149;1263;18316;-31
2023/12/14 08:18:40;;;;;;;;;4.00;4.00;;;;;21.73;49.23;100425.48;112048;1248;20212;-31
2023/12/14 08:21:08;;;;;;;;;4.00;4.00;;;;;21.70;49.47;100430.42;112149;1263;19252;-31
2023/12/14 08:23:36;;;;;;;;;4.00;2.00;;;;;21.70;49.56;100432.16;111986;1248;19646;-31
2023/12/14 08:26:03;;;;;;;;;5.00;4.00;;;;;21.71;49.45;100437.98;112113;1248;20042;-31
2023/12/14 08:28:30;;;;;;;;;3.00;2.00;;;;;21.70;49.26;100441.86;111980;1248;20886;-32
2023/12/14 08:30:58;;;;;;;;;2.00;2.00;;;;;21.70;49.20;100443.93;112104;1262;19527;-31
2023/12/14 08:33:26;;;;;;;;;4.00;4.00;;;;;21.69;49.06;100450.65;112107;1247;18646;-31
2023/12/14 08:35:53;;;;;;;;;4.00;4.00;;;;;21.73;48.94;100453.08;112284;1247;19331;-31
2023/12/14 08:38:20;;;;;;;;;5.00;5.00;;;;;21.70;48.54;100453.04;112143;1247;19632;-31
2023/12/14 08:40:48;;;;;;;;;5.00;5.00;;;;;21.70;48.90;100455.98;112237;1248;21182;-31
2023/12/14 08:43:15;;;;;;;;;4.00;4.00;;;;;21.72;48.65;100463.83;112191;1247;20717;-30
2023/12/14 08:45:43;;;;;;;;;5.00;4.33;;;;;21.75;48.68;100463.86;112251;1247;19582;-30
2023/12/14 08:48:10;;;;;;;;;4.00;4.00;;;;;21.78;48.77;100467.11;112147;1248;19932;-30
2023/12/14 08:50:37;;;;;;;;;5.00;5.00;;;;;21.76;49.05;100470.50;112276;1247;21968;-30
2023/12/14 08:53:05;;;;;;;;;5.00;5.00;;;;;21.79;49.32;100470.96;112141;1262;18296;-30
2023/12/14 08:55:33;;;;;;;;;2.00;2.00;;;;;21.78;49.48;100474.86;112251;1247;20153;-30
2023/12/14 08:58:00;;;;;;;;;5.00;4.00;;;;;21.79;49.59;100477.23;112179;1246;20710;-30
2023/12/14 09:00:28;;;;;;;;;3.00;3.00;;;;;21.78;49.62;100483.19;112264;1247;19659;-30
2023/12/14 09:02:55;;;;;;;;;4.00;4.00;;;;;21.80;50.26;100488.96;112171;1247;19211;-30
2023/12/14 09:05:23;;;;;;;;;4.00;4.00;;;;;21.90;50.44;100492.38;112266;1262;19315;-30
2023/12/14 09:07:52;;;;;;;;;5.00;4.00;;;;;21.92;50.35;100493.51;112134;1262;20587;-30
2023/12/14 09:10:19;;;;;;;;;4.00;2.00;;;;;21.87;50.61;100501.39;112167;1247;20118;-30
2023/12/14 09:12:47;;;;;;;;;4.67;4.00;;;;;21.88;50.43;100500.67;112279;1246;21947;-30
2023/12/14 09:15:15;;;;;;;;;4.00;4.00;;;;;21.85;49.88;100503.42;112192;1262;19567;-30
2023/12/14 09:17:43;;;;;;;;;2.67;2.00;;;;;21.92;51.22;100502.23;112241;1262;19946;-30
2023/12/14 09:20:11;;;;;;;;;4.00;4.00;;;;;21.96;51.83;100508.30;112204;1247;19414;-30
2023/12/14 09:22:38;;;;;;;;;5.00;4.00;;;;;21.98;51.90;100507.36;112243;1248;19575;-30
2023/12/14 09:25:06;;;;;;;;;4.00;4.00;;;;;21.92;52.35;100509.33;112183;1247;21288;-30
2023/12/14 09:27:33;;;;;;;;;3.00;3.00;;;;;21.96;52.13;100514.04;112258;1254;19316;-30
2023/12/14 09:30:00;;;;;;;;;4.00;4.00;;;;;21.97;52.01;100520.90;112196;1254;19193;-30
2023/12/14 09:32:28;;;;;;;;;4.50;4.50;;;;;21.96;51.81;100521.17;112256;1262;18991;-30
2023/12/14 09:34:56;;;;;;;;;4.00;4.00;;;;;21.88;51.46;100518.56;112222;1262;20617;-30
2023/12/14 09:37:24;;;;;;;;;5.00;5.00;;;;;21.87;51.09;100517.54;112244;1262;18849;-30
2023/12/14 09:39:51;;;;;;;;;5.00;5.00;;;;;21.90;50.38;100520.58;112187;1257;19926;-30
2023/12/14 09:42:19;;;;;;;;;4.33;4.00;;;;;21.85;50.15;100517.98;112241;1247;20888;-30
2023/12/14 09:44:46;;;;;;;;;4.00;4.00;;;;;21.82;50.41;100518.01;112204;1262;18180;-30
2023/12/14 09:47:13;;;;;;;;;4.33;4.33;;;;;21.82;50.47;100520.95;112270;1247;20006;-30
2023/12/14 09:49:42;;;;;;;;;4.00;4.00;;;;;21.84;50.63;100528.25;112299;1247;20745;-30
2023/12/14 09:52:10;;;;;;;;;5.00;4.00;;;;;21.79;50.79;100524.19;112188;1262;19603;-30
2023/12/14 09:54:37;;;;;;;;;7.00;4.00;;;;;21.84;49.90;100521.27;112163;1262;19967;-30
2023/12/14 09:57:05;;;;;;;;;6.00;4.00;;;;;21.82;49.80;100519.09;112142;1262;19279;-30
2023/12/14 09:59:32;;;;;;;;;5.00;4.00;;;;;21.80;50.08;100520.58;112140;1254;18174;-30
2023/12/14 10:01:59;;;;;;;;;2.00;2.00;;;;;21.77;49.91;100521.69;112192;1247;19981;-30
2023/12/14 10:04:27;;;;;;;;;2.00;2.00;;;;;21.76;50.08;100526.28;112160;1255;20582;-30
2023/12/14 10:06:54;;;;;;;;;4.00;4.00;;;;;21.74;49.78;100525.20;112200;1254;19558;-30
2023/12/14 10:09:22;;;;;;;;;4.50;4.00;;;;;21.75;49.80;100526.55;112198;1262;18768;-30
2023/12/14 10:11:50;;;;;;;;;2.00;2.00;;;;;21.80;49.50;100527.19;112141;1247;20932;-30
2023/12/14 10:14:17;;;;;;;;;2.00;2.00;;;;;21.83;49.37;100527.93;112133;1262;19553;-30
2023/12/14 10:16:44;;;;;;;;;2.00;2.00;;;;;21.83;49.19;100531.91;112156;1247;20026;-30
2023/12/14 10:19:12;;;;;;;;;4.00;4.00;;;;;21.79;49.13;100533.57;112152;1247;19420;-30
2023/12/14 10:21:40;;;;;;;;;4.50;3.00;;;;;21.75;49.03;100534.14;112186;1262;18212;-30
2023/12/14 10:24:08;;;;;;;;;3.00;3.00;;;;;21.73;49.11;100534.76;112173;1247;21258;-30
2023/12/14 10:26:35;;;;;;;;;4.00;2.00;;;;;21.71;49.11;100533.52;112143;1254;20806;-30
2023/12/14 10:29:04;;;;;;;;;5.00;5.00;;;;;21.69;49.46;100532.59;112171;1262;19590;-30
2023/12/14 10:31:31;;;;;;;;;4.50;4.00;;;;;21.67;49.29;100535.11;112183;1247;20081;-30
2023/12/14 10:33:59;;;;;;;;;2.00;2.00;;;;;21.68;49.33;100536.04;112224;1247;20807;-30
2023/12/14 10:36:27;;;;;;;;;2.00;2.00;;;;;21.67;49.22;100537.79;112182;1257;20651;-30
2023/12/14 10:38:54;;;;;;;;;2.00;1.00;;;;;21.66;49.36;100541.33;112194;1248;20044;-30
2023/12/14 10:41:22;;;;;;;;;2.00;2.00;;;;;21.67;49.37;100546.29;112222;1248;20777;-30
2023/12/14 10:43:49;;;;;;;;;2.00;2.00;;;;;21.66;49.11;100545.42;112177;1254;18755;-30
2023/12/14 10:46:17;;;;;;;;;4.00;2.00;;;;;21.64;49.41;100550.45;112180;1254;20204;-30
2023/12/14 10:48:45;;;;;;;;;2.00;2.00;;;;;21.65;49.17;100557.80;112134;1247;20895;-30
2023/12/14 10:51:12;;;;;;;;;2.00;2.00;;;;;21.66;49.02;100563.20;112193;1248;19595;-30
2023/12/14 10:53:39;;;;;;;;;2.00;2.00;;;;;21.66;49.27;100565.76;112201;1247;20082;-30
2023/12/14 10:56:09;;;;;;;;;2.00;2.00;;;;;21.65;49.25;100568.33;112218;1247;20956;-30
2023/12/14 10:58:36;;;;;;;;;6.00;2.00;;;;;21.62;49.30;100567.25;112206;1262;18217;-30
2023/12/14 11:01:04;;;;;;;;;4.00;4.00;;;;;21.63;49.12;100570.67;112211;1262;18641;-30
2023/12/14 11:03:31;;;;;;;;;2.00;2.00;;;;;21.64;49.09;100576.51;112209;1247;20703;-30
2023/12/14 11:05:59;;;;;;;;;2.00;2.00;;;;;21.63;48.91;100575.36;112210;1255;19525;-30
2023/12/14 11:08:26;;;;;;;;;2.00;2.00;;;;;21.62;49.20;100578.20;112183;1254;19937;-30
2023/12/14 11:10:55;;;;;;;;;2.00;2.00;;;;;21.68;48.91;100577.41;112179;1248;20791;-30
2023/12/14 11:13:22;;;;;;;;;4.00;4.00;;;;;21.74;47.98;100582.35;112201;1262;18569;-30
2023/12/14 11:15:50;;;;;;;;;7.00;5.00;;;;;21.71;47.76;100580.45;112183;1262;18522;-30
2023/12/14 11:18:18;;;;;;;;;6.00;5.00;;;;;21.67;47.04;100584.67;112162;1247;20766;-30